sensor_id;sensor_type;location;lat;lon;timestamp;pressure;altitude;pressure_sealevel;temperature;humidity
38780;BME280;29273;49.962;9.768;2023-03-23T00:02:26;99032.50;;;15.63;47.15
38780;BME280;29273;49.962;9.768;2023-03-23T00:04:52;99039.66;;;15.57;46.74
38780;BME280;29273;49.962;9.768;2023-03-23T00:07:19;99031.38;;;15.59;47.15
38780;BME280;29273;49.962;9.768;2023-03-23T00:09:49;99030.06;;;15.61;46.92
38780;BME280;29273;49.962;9.768;2023-03-23T00:12:21;99036.72;;;15.59;46.80
38780;BME280;29273;49.962;9.768;2023-03-23T00:14:47;99036.16;;;15.57;46.38
38780;BME280;29273;49.962;9.768;2023-03-23T00:17:12;99039.09;;;15.55;46.58
38780;BME280;29273;49.962;9.768;2023-03-23T00:19:40;99037.00;;;15.57;46.43
38780;BME280;29273;49.962;9.768;2023-03-23T00:22:13;99039.66;;;15.57;46.86
38780;BME280;29273;49.962;9.768;2023-03-23T00:24:39;99028.16;;;15.57;46.91
38780;BME280;29273;49.962;9.768;2023-03-23T00:27:04;99030.03;;;15.56;46.91
38780;BME280;29273;49.962;9.768;2023-03-23T00:29:30;99025.50;;;15.57;46.61
38780;BME280;29273;49.962;9.768;2023-03-23T00:31:58;99022.56;;;15.58;46.45
38780;BME280;29273;49.962;9.768;2023-03-23T00:34:24;99020.69;;;15.59;46.85
38780;BME280;29273;49.962;9.768;2023-03-23T00:36:54;99020.50;;;15.65;46.95
38780;BME280;29273;49.962;9.768;2023-03-23T00:39:23;99019.41;;;15.61;46.51
38780;BME280;29273;49.962;9.768;2023-03-23T00:41:51;99015.44;;;15.64;46.76
38780;BME280;29273;49.962;9.768;2023-03-23T00:44:16;99004.47;;;15.65;46.65
38780;BME280;29273;49.962;9.768;2023-03-23T00:46:46;99008.00;;;15.71;46.48
38780;BME280;29273;49.962;9.768;2023-03-23T00:49:16;99004.78;;;15.69;46.53
38780;BME280;29273;49.962;9.768;2023-03-23T00:51:42;98994.13;;;15.69;46.79
38780;BME280;29273;49.962;9.768;2023-03-23T00:54:09;99001.34;;;15.73;46.80
38780;BME280;29273;49.962;9.768;2023-03-23T00:56:35;98991.50;;;15.74;46.60
38780;BME280;29273;49.962;9.768;2023-03-23T00:59:01;98993.69;;;15.77;46.43
38780;BME280;29273;49.962;9.768;2023-03-23T01:01:27;98999.03;;;15.77;46.90
38780;BME280;29273;49.962;9.768;2023-03-23T01:03:53;98995.28;;;15.78;46.59
38780;BME280;29273;49.962;9.768;2023-03-23T01:06:27;98998.22;;;15.82;46.69
38780;BME280;29273;49.962;9.768;2023-03-23T01:08:53;98996.63;;;15.81;46.31
38780;BME280;29273;49.962;9.768;2023-03-23T01:11:19;98990.22;;;15.82;46.72
38780;BME280;29273;49.962;9.768;2023-03-23T01:13:45;98992.88;;;15.82;46.36
38780;BME280;29273;49.962;9.768;2023-03-23T01:16:11;98988.38;;;15.82;46.32
38780;BME280;29273;49.962;9.768;2023-03-23T01:18:38;98981.97;;;15.83;46.39
38780;BME280;29273;49.962;9.768;2023-03-23T01:21:09;98971.88;;;15.90;46.87
38780;BME280;29273;49.962;9.768;2023-03-23T01:23:37;98968.34;;;15.85;46.60
38780;BME280;29273;49.962;9.768;2023-03-23T01:26:05;98966.22;;;15.87;46.23
38780;BME280;29273;49.962;9.768;2023-03-23T01:28:31;98965.94;;;15.83;45.88
38780;BME280;29273;49.962;9.768;2023-03-23T01:31:04;98951.56;;;15.89;46.65
38780;BME280;29273;49.962;9.768;2023-03-23T01:33:30;98953.41;;;15.84;46.17
38780;BME280;29273;49.962;9.768;2023-03-23T01:35:57;98955.25;;;15.83;46.19
38780;BME280;29273;49.962;9.768;2023-03-23T01:38:23;98954.19;;;15.79;45.62
38780;BME280;29273;49.962;9.768;2023-03-23T01:40:49;98948.03;;;15.79;45.92
38780;BME280;29273;49.962;9.768;2023-03-23T01:43:15;98941.09;;;15.78;46.08
38780;BME280;29273;49.962;9.768;2023-03-23T01:45:43;98944.00;;;15.76;46.01
38780;BME280;29273;49.962;9.768;2023-03-23T01:48:16;98945.91;;;15.81;46.37
38780;BME280;29273;49.962;9.768;2023-03-23T01:50:50;98945.38;;;15.79;46.20
38780;BME280;29273;49.962;9.768;2023-03-23T01:53:18;98936.47;;;15.73;45.77
38780;BME280;29273;49.962;9.768;2023-03-23T01:55:44;98945.53;;;15.72;46.02
38780;BME280;29273;49.962;9.768;2023-03-23T01:58:15;98945.28;;;15.73;45.93
38780;BME280;29273;49.962;9.768;2023-03-23T02:00:43;98953.53;;;15.72;46.16
38780;BME280;29273;49.962;9.768;2023-03-23T02:03:09;98937.81;;;15.70;46.01
38780;BME280;29273;49.962;9.768;2023-03-23T02:05:39;98945.53;;;15.72;46.25
38780;BME280;29273;49.962;9.768;2023-03-23T02:08:14;98940.75;;;15.69;46.19
38780;BME280;29273;49.962;9.768;2023-03-23T02:10:40;98938.88;;;15.69;45.83
38780;BME280;29273;49.962;9.768;2023-03-23T02:13:08;98942.31;;;15.70;46.27
38780;BME280;29273;49.962;9.768;2023-03-23T02:16:03;98931.91;;;15.68;46.40
38780;BME280;29273;49.962;9.768;2023-03-23T02:27:01;98940.34;;;15.55;46.07
38780;BME280;29273;49.962;9.768;2023-03-23T02:32:16;98941.47;;;15.59;46.47
38780;BME280;29273;49.962;9.768;2023-03-23T02:34:51;98946.25;;;15.57;46.23
38780;BME280;29273;49.962;9.768;2023-03-23T02:37:24;98945.72;;;15.60;46.16
38780;BME280;29273;49.962;9.768;2023-03-23T02:40:06;98937.97;;;15.59;46.00
38780;BME280;29273;49.962;9.768;2023-03-23T02:42:38;98928.38;;;15.58;46.19
38780;BME280;29273;49.962;9.768;2023-03-23T02:45:08;98921.16;;;15.58;45.98
38780;BME280;29273;49.962;9.768;2023-03-23T02:47:37;98914.78;;;15.59;46.35
38780;BME280;29273;49.962;9.768;2023-03-23T02:50:05;98911.84;;;15.61;45.95
38780;BME280;29273;49.962;9.768;2023-03-23T02:52:34;98915.56;;;15.60;45.92
38780;BME280;29273;49.962;9.768;2023-03-23T02:55:02;98911.56;;;15.57;46.07
38780;BME280;29273;49.962;9.768;2023-03-23T02:57:29;98915.03;;;15.58;45.76
38780;BME280;29273;49.962;9.768;2023-03-23T02:59:58;98915.28;;;15.56;45.64
38780;BME280;29273;49.962;9.768;2023-03-23T03:02:26;98925.19;;;15.61;46.02
38780;BME280;29273;49.962;9.768;2023-03-23T03:07:54;98930.78;;;15.59;46.80
38780;BME280;29273;49.962;9.768;2023-03-23T03:10:31;98933.50;;;15.64;46.41
38780;BME280;29273;49.962;9.768;2023-03-23T03:13:10;98930.81;;;15.64;46.34
38780;BME280;29273;49.962;9.768;2023-03-23T03:15:45;98922.56;;;15.66;46.46
38780;BME280;29273;49.962;9.768;2023-03-23T03:18:24;98929.50;;;15.67;46.53
38780;BME280;29273;49.962;9.768;2023-03-23T03:20:57;98923.34;;;15.66;46.63
38780;BME280;29273;49.962;9.768;2023-03-23T03:23:25;98914.81;;;15.64;46.07
38780;BME280;29273;49.962;9.768;2023-03-23T03:25:55;98904.13;;;15.64;45.88
38780;BME280;29273;49.962;9.768;2023-03-23T03:28:29;98906.25;;;15.62;45.70
38780;BME280;29273;49.962;9.768;2023-03-23T03:30:58;98905.72;;;15.65;46.00
38780;BME280;29273;49.962;9.768;2023-03-23T03:33:27;98902.78;;;15.67;46.11
38780;BME280;29273;49.962;9.768;2023-03-23T03:35:59;98902.78;;;15.67;46.07
38780;BME280;29273;49.962;9.768;2023-03-23T03:38:27;98904.94;;;15.65;46.22
38780;BME280;29273;49.962;9.768;2023-03-23T03:40:54;98902.25;;;15.65;46.43
38780;BME280;29273;49.962;9.768;2023-03-23T03:43:21;98899.84;;;15.63;45.99
38780;BME280;29273;49.962;9.768;2023-03-23T03:45:47;98905.19;;;15.63;45.82
38780;BME280;29273;49.962;9.768;2023-03-23T03:48:13;98912.13;;;15.64;45.81
38780;BME280;29273;49.962;9.768;2023-03-23T03:50:38;98921.19;;;15.63;46.09
38780;BME280;29273;49.962;9.768;2023-03-23T03:53:05;98915.84;;;15.63;45.97
38780;BME280;29273;49.962;9.768;2023-03-23T03:55:32;98910.53;;;15.63;46.06
38780;BME280;29273;49.962;9.768;2023-03-23T03:58:02;98903.88;;;15.66;46.36
38780;BME280;29273;49.962;9.768;2023-03-23T04:00:48;98906.25;;;15.62;46.34
38780;BME280;29273;49.962;9.768;2023-03-23T04:03:18;98908.09;;;15.62;46.17
38780;BME280;29273;49.962;9.768;2023-03-23T04:05:57;98909.72;;;15.63;46.35
38780;BME280;29273;49.962;9.768;2023-03-23T04:08:24;98898.25;;;15.62;46.04
38780;BME280;29273;49.962;9.768;2023-03-23T04:10:52;98901.72;;;15.63;46.13
38780;BME280;29273;49.962;9.768;2023-03-23T04:13:19;98901.72;;;15.63;46.23
38780;BME280;29273;49.962;9.768;2023-03-23T04:16:04;98895.59;;;15.62;46.40
38780;BME280;29273;49.962;9.768;2023-03-23T04:18:32;98906.25;;;15.62;46.10
38780;BME280;29273;49.962;9.768;2023-03-23T04:21:00;98903.59;;;15.62;46.20
38780;BME280;29273;49.962;9.768;2023-03-23T04:23:28;98906.50;;;15.61;46.23
38780;BME280;29273;49.962;9.768;2023-03-23T04:25:56;98914.78;;;15.59;46.42
38780;BME280;29273;49.962;9.768;2023-03-23T04:28:29;98919.28;;;15.59;46.11
38780;BME280;29273;49.962;9.768;2023-03-23T04:31:18;98920.38;;;15.58;46.37
38780;BME280;29273;49.962;9.768;2023-03-23T04:33:49;98915.28;;;15.56;46.38
38780;BME280;29273;49.962;9.768;2023-03-23T04:36:19;98918.75;;;15.57;46.31
38780;BME280;29273;49.962;9.768;2023-03-23T04:38:55;98926.75;;;15.57;46.42
38780;BME280;29273;49.962;9.768;2023-03-23T04:41:23;98925.16;;;15.56;46.46
38780;BME280;29273;49.962;9.768;2023-03-23T04:43:59;98922.50;;;15.56;46.51
38780;BME280;29273;49.962;9.768;2023-03-23T04:46:34;98927.00;;;15.55;46.46
38780;BME280;29273;49.962;9.768;2023-03-23T04:49:06;98921.13;;;15.53;46.73
38780;BME280;29273;49.962;9.768;2023-03-23T04:51:35;98917.41;;;15.54;46.36
38780;BME280;29273;49.962;9.768;2023-03-23T04:54:11;98913.91;;;15.53;46.96
38780;BME280;29273;49.962;9.768;2023-03-23T04:56:39;98921.13;;;15.53;46.97
38780;BME280;29273;49.962;9.768;2023-03-23T04:59:10;98931.78;;;15.53;46.81
38780;BME280;29273;49.962;9.768;2023-03-23T05:01:43;98931.00;;;15.52;47.35
38780;BME280;29273;49.962;9.768;2023-03-23T05:04:20;98932.31;;;15.50;47.81
38780;BME280;29273;49.962;9.768;2023-03-23T05:06:59;98938.72;;;15.49;47.98
38780;BME280;29273;49.962;9.768;2023-03-23T05:09:29;98939.50;;;15.49;48.49
38780;BME280;29273;49.962;9.768;2023-03-23T05:11:54;98937.09;;;15.48;48.68
38780;BME280;29273;49.962;9.768;2023-03-23T05:14:20;98932.81;;;15.47;49.31
38780;BME280;29273;49.962;9.768;2023-03-23T05:16:54;98934.69;;;15.46;50.16
38780;BME280;29273;49.962;9.768;2023-03-23T05:19:20;98940.28;;;15.45;50.17
38780;BME280;29273;49.962;9.768;2023-03-23T05:21:47;98937.84;;;15.43;50.58
38780;BME280;29273;49.962;9.768;2023-03-23T05:24:12;98954.13;;;15.42;50.99
38780;BME280;29273;49.962;9.768;2023-03-23T05:26:39;98947.19;;;15.41;51.57
38780;BME280;29273;49.962;9.768;2023-03-23T05:29:14;98956.50;;;15.38;51.76
38780;BME280;29273;49.962;9.768;2023-03-23T05:31:55;98949.00;;;15.35;51.80
38780;BME280;29273;49.962;9.768;2023-03-23T05:34:21;98950.06;;;15.34;51.94
38780;BME280;29273;49.962;9.768;2023-03-23T05:36:52;98963.66;;;15.32;52.27
38780;BME280;29273;49.962;9.768;2023-03-23T05:39:37;98961.75;;;15.28;52.76
38780;BME280;29273;49.962;9.768;2023-03-23T05:42:16;98964.91;;;15.25;52.59
38780;BME280;29273;49.962;9.768;2023-03-23T05:45:04;98969.69;;;15.23;52.84
38780;BME280;29273;49.962;9.768;2023-03-23T05:47:30;98977.16;;;15.21;52.65
38780;BME280;29273;49.962;9.768;2023-03-23T05:50:02;98975.63;;;15.03;51.46
38780;BME280;29273;49.962;9.768;2023-03-23T05:52:29;98979.19;;;15.13;53.27
38780;BME280;29273;49.962;9.768;2023-03-23T05:54:58;98969.59;;;15.12;53.68
38780;BME280;29273;49.962;9.768;2023-03-23T05:57:24;98976.00;;;15.11;53.94
38780;BME280;29273;49.962;9.768;2023-03-23T06:00:00;98984.50;;;15.08;53.96
38780;BME280;29273;49.962;9.768;2023-03-23T06:02:38;98978.59;;;15.06;54.28
38780;BME280;29273;49.962;9.768;2023-03-23T06:05:04;98984.19;;;15.05;54.54
38780;BME280;29273;49.962;9.768;2023-03-23T06:07:32;98982.56;;;15.04;54.27
38780;BME280;29273;49.962;9.768;2023-03-23T06:10:01;98990.03;;;15.02;54.36
38780;BME280;29273;49.962;9.768;2023-03-23T06:12:36;98985.75;;;15.01;54.33
38780;BME280;29273;49.962;9.768;2023-03-23T06:15:12;98987.84;;;14.98;54.71
38780;BME280;29273;49.962;9.768;2023-03-23T06:18:04;98993.25;;;14.82;53.07
38780;BME280;29273;49.962;9.768;2023-03-23T06:20:46;98992.34;;;14.93;55.03
38780;BME280;29273;49.962;9.768;2023-03-23T06:23:21;98997.66;;;14.93;55.08
38780;BME280;29273;49.962;9.768;2023-03-23T06:25:48;98988.63;;;14.94;55.33
38780;BME280;29273;49.962;9.768;2023-03-23T06:28:14;98987.78;;;14.93;55.28
38780;BME280;29273;49.962;9.768;2023-03-23T06:30:43;98989.41;;;14.94;55.48
38780;BME280;29273;49.962;9.768;2023-03-23T06:33:09;98991.28;;;14.94;55.61
38780;BME280;29273;49.962;9.768;2023-03-23T06:36:04;99000.09;;;14.94;55.65
38780;BME280;29273;49.962;9.768;2023-03-23T06:38:55;98999.53;;;14.92;55.66
38780;BME280;29273;49.962;9.768;2023-03-23T06:41:31;99010.25;;;14.97;55.47
38780;BME280;29273;49.962;9.768;2023-03-23T06:43:57;99009.69;;;14.95;55.41
38780;BME280;29273;49.962;9.768;2023-03-23T06:46:27;99015.59;;;14.97;56.13
38780;BME280;29273;49.962;9.768;2023-03-23T06:49:13;99021.72;;;14.98;56.55
38780;BME280;29273;49.962;9.768;2023-03-23T06:51:47;99019.03;;;14.98;55.86
38780;BME280;29273;49.962;9.768;2023-03-23T06:54:13;99020.66;;;14.99;56.06
38780;BME280;29273;49.962;9.768;2023-03-23T06:56:40;99018.81;;;14.99;56.17
38780;BME280;29273;49.962;9.768;2023-03-23T06:59:07;99031.09;;;15.01;56.48
38780;BME280;29273;49.962;9.768;2023-03-23T07:01:33;99028.97;;;15.03;56.76
38780;BME280;29273;49.962;9.768;2023-03-23T07:04:00;99027.91;;;15.04;55.75
38780;BME280;29273;49.962;9.768;2023-03-23T07:06:39;99023.13;;;15.06;55.92
38780;BME280;29273;49.962;9.768;2023-03-23T07:09:07;99023.94;;;15.06;55.93
38780;BME280;29273;49.962;9.768;2023-03-23T07:11:34;99015.13;;;15.06;56.21
38780;BME280;29273;49.962;9.768;2023-03-23T07:14:05;99007.94;;;15.06;56.20
38780;BME280;29273;49.962;9.768;2023-03-23T07:16:31;99010.34;;;15.08;56.20
38780;BME280;29273;49.962;9.768;2023-03-23T07:18:57;99021.56;;;15.10;56.11
38780;BME280;29273;49.962;9.768;2023-03-23T07:21:22;99026.66;;;15.11;55.88
38780;BME280;29273;49.962;9.768;2023-03-23T07:23:48;99034.41;;;15.13;56.23
38780;BME280;29273;49.962;9.768;2023-03-23T07:26:21;99032.28;;;15.15;56.50
38780;BME280;29273;49.962;9.768;2023-03-23T07:28:52;99030.44;;;15.15;56.31
38780;BME280;29273;49.962;9.768;2023-03-23T07:31:39;99033.41;;;15.19;56.62
38780;BME280;29273;49.962;9.768;2023-03-23T07:34:05;99025.97;;;15.21;56.42
38780;BME280;29273;49.962;9.768;2023-03-23T07:36:54;99030.78;;;15.24;56.50
38780;BME280;29273;49.962;9.768;2023-03-23T07:39:22;99035.63;;;15.27;56.26
38780;BME280;29273;49.962;9.768;2023-03-23T07:41:52;99035.94;;;15.31;56.36
38780;BME280;29273;49.962;9.768;2023-03-23T07:44:31;99041.03;;;15.32;56.56
38780;BME280;29273;49.962;9.768;2023-03-23T07:46:56;99042.38;;;15.35;56.75
38780;BME280;29273;49.962;9.768;2023-03-23T07:49:29;99047.19;;;15.38;56.62
38780;BME280;29273;49.962;9.768;2023-03-23T07:52:05;99048.56;;;15.41;56.49
38780;BME280;29273;49.962;9.768;2023-03-23T07:54:31;99051.78;;;15.43;57.09
38780;BME280;29273;49.962;9.768;2023-03-23T07:57:19;99050.22;;;15.47;57.29
38780;BME280;29273;49.962;9.768;2023-03-23T07:59:50;99056.66;;;15.51;57.02
38780;BME280;29273;49.962;9.768;2023-03-23T08:02:16;99047.59;;;15.52;57.65
38780;BME280;29273;49.962;9.768;2023-03-23T08:04:56;99054.06;;;15.56;57.69
38780;BME280;29273;49.962;9.768;2023-03-23T08:07:57;99061.56;;;15.59;57.17
38780;BME280;29273;49.962;9.768;2023-03-23T08:10:42;99059.97;;;15.63;57.53
38780;BME280;29273;49.962;9.768;2023-03-23T08:13:21;99064.56;;;15.68;57.27
38780;BME280;29273;49.962;9.768;2023-03-23T08:16:13;99067.91;;;15.53;56.04
38780;BME280;29273;49.962;9.768;2023-03-23T08:18:52;99063.56;;;15.74;57.27
38780;BME280;29273;49.962;9.768;2023-03-23T08:21:39;99070.03;;;15.78;57.39
38780;BME280;29273;49.962;9.768;2023-03-23T08:24:40;99071.94;;;15.83;57.69
38780;BME280;29273;49.962;9.768;2023-03-23T08:27:25;99075.44;;;15.88;56.83
38780;BME280;29273;49.962;9.768;2023-03-23T08:30:16;99074.97;;;15.97;56.92
38780;BME280;29273;49.962;9.768;2023-03-23T08:32:51;99082.72;;;15.98;56.70
38780;BME280;29273;49.962;9.768;2023-03-23T08:35:38;99083.84;;;16.02;56.59
38780;BME280;29273;49.962;9.768;2023-03-23T08:38:18;99074.25;;;16.06;56.55
38780;BME280;29273;49.962;9.768;2023-03-23T08:41:06;99067.09;;;16.12;56.88
38780;BME280;29273;49.962;9.768;2023-03-23T08:43:53;99070.06;;;16.16;56.97
38780;BME280;29273;49.962;9.768;2023-03-23T08:46:37;99067.69;;;16.19;56.77
38780;BME280;29273;49.962;9.768;2023-03-23T08:49:04;99083.75;;;16.24;56.91
38780;BME280;29273;49.962;9.768;2023-03-23T08:51:59;99086.69;;;16.28;56.76
38780;BME280;29273;49.962;9.768;2023-03-23T08:54:34;99087.00;;;16.32;56.66
38780;BME280;29273;49.962;9.768;2023-03-23T08:57:17;99091.03;;;16.34;56.90
38780;BME280;29273;49.962;9.768;2023-03-23T09:00:05;99082.00;;;16.40;55.62
38780;BME280;29273;49.962;9.768;2023-03-23T09:03:02;99077.69;;;16.39;55.80
38780;BME280;29273;49.962;9.768;2023-03-23T09:05:39;99073.44;;;16.43;55.94
38780;BME280;29273;49.962;9.768;2023-03-23T09:08:22;99064.91;;;16.46;55.17
38780;BME280;29273;49.962;9.768;2023-03-23T09:10:48;99063.59;;;16.49;53.47
38780;BME280;29273;49.962;9.768;2023-03-23T09:13:14;99071.91;;;16.53;54.74
38780;BME280;29273;49.962;9.768;2023-03-23T09:15:40;99067.09;;;16.55;54.44
38780;BME280;29273;49.962;9.768;2023-03-23T09:18:06;99076.47;;;16.57;53.72
38780;BME280;29273;49.962;9.768;2023-03-23T09:20:32;99074.09;;;16.61;54.32
38780;BME280;29273;49.962;9.768;2023-03-23T09:22:58;99080.50;;;16.65;53.95
38780;BME280;29273;49.962;9.768;2023-03-23T09:25:26;99086.69;;;16.71;53.53
38780;BME280;29273;49.962;9.768;2023-03-23T09:27:58;99081.13;;;16.77;53.51
38780;BME280;29273;49.962;9.768;2023-03-23T09:30:29;99087.78;;;16.75;53.86
38780;BME280;29273;49.962;9.768;2023-03-23T09:32:55;99080.84;;;16.74;52.96
38780;BME280;29273;49.962;9.768;2023-03-23T09:35:22;99093.13;;;16.75;52.80
38780;BME280;29273;49.962;9.768;2023-03-23T09:37:48;99096.34;;;16.77;52.93
38780;BME280;29273;49.962;9.768;2023-03-23T09:40:25;99107.09;;;16.82;52.83
38780;BME280;29273;49.962;9.768;2023-03-23T09:48:56;99118.88;;;16.86;53.01
38780;BME280;29273;49.962;9.768;2023-03-23T09:51:36;99129.44;;;16.65;53.73
38780;BME280;29273;49.962;9.768;2023-03-23T09:54:14;99122.06;;;16.83;53.04
38780;BME280;29273;49.962;9.768;2023-03-23T09:56:44;99130.31;;;16.81;52.53
38780;BME280;29273;49.962;9.768;2023-03-23T09:59:31;99123.94;;;16.82;52.26
38780;BME280;29273;49.962;9.768;2023-03-23T10:02:15;99126.91;;;16.86;52.50
38780;BME280;29273;49.962;9.768;2023-03-23T10:09:40;99126.91;;;16.86;52.06
38780;BME280;29273;49.962;9.768;2023-03-23T10:17:38;99128.00;;;16.90;52.29
38780;BME280;29273;49.962;9.768;2023-03-23T10:22:55;99118.91;;;16.91;53.04
38780;BME280;29273;49.962;9.768;2023-03-23T10:25:31;99115.97;;;16.88;52.24
38780;BME280;29273;49.962;9.768;2023-03-23T10:28:03;99118.09;;;16.86;52.38
38780;BME280;29273;49.962;9.768;2023-03-23T10:30:33;99125.06;;;16.92;53.37
38780;BME280;29273;49.962;9.768;2023-03-23T10:33:24;99128.56;;;16.92;52.94
38780;BME280;29273;49.962;9.768;2023-03-23T10:35:59;99133.66;;;16.94;51.62
38780;BME280;29273;49.962;9.768;2023-03-23T10:38:34;99133.66;;;16.99;52.70
38780;BME280;29273;49.962;9.768;2023-03-23T10:41:07;99124.81;;;16.98;52.30
38780;BME280;29273;49.962;9.768;2023-03-23T10:43:34;99111.16;;;16.95;52.37
38780;BME280;29273;49.962;9.768;2023-03-23T10:46:05;99111.47;;;17.04;52.59
38780;BME280;29273;49.962;9.768;2023-03-23T10:48:37;99120.84;;;17.06;52.19
38780;BME280;29273;49.962;9.768;2023-03-23T10:51:07;99123.56;;;17.11;53.36
38780;BME280;29273;49.962;9.768;2023-03-23T10:53:43;99107.50;;;17.16;52.63
38780;BME280;29273;49.962;9.768;2023-03-23T10:56:42;99105.09;;;17.15;52.64
38780;BME280;29273;49.962;9.768;2023-03-23T10:59:19;99108.13;;;17.29;52.77
38780;BME280;29273;49.962;9.768;2023-03-23T11:01:49;99123.63;;;17.32;51.25
38780;BME280;29273;49.962;9.768;2023-03-23T11:04:16;99122.03;;;17.36;51.56
38780;BME280;29273;49.962;9.768;2023-03-23T11:06:45;99114.28;;;17.45;51.85
38780;BME280;29273;49.962;9.768;2023-03-23T11:09:13;99107.09;;;17.50;51.53
38780;BME280;29273;49.962;9.768;2023-03-23T11:11:42;99117.81;;;17.55;51.14
38780;BME280;29273;49.962;9.768;2023-03-23T11:16:50;99130.69;;;17.59;49.82
38780;BME280;29273;49.962;9.768;2023-03-23T11:19:26;99121.81;;;17.58;49.85
38780;BME280;29273;49.962;9.768;2023-03-23T11:21:54;99129.59;;;17.54;49.84
38780;BME280;29273;49.962;9.768;2023-03-23T11:24:25;99127.97;;;17.53;49.12
38780;BME280;29273;49.962;9.768;2023-03-23T11:26:52;99137.59;;;17.44;49.92
38780;BME280;29273;49.962;9.768;2023-03-23T11:29:23;99131.97;;;17.46;49.46
38780;BME280;29273;49.962;9.768;2023-03-23T11:34:23;99139.72;;;17.42;50.55
38780;BME280;29273;49.962;9.768;2023-03-23T11:36:52;99148.56;;;17.43;50.41
38780;BME280;29273;49.962;9.768;2023-03-23T11:39:23;99143.72;;;17.39;50.24
38780;BME280;29273;49.962;9.768;2023-03-23T11:41:49;99164.34;;;17.44;50.30
38780;BME280;29273;49.962;9.768;2023-03-23T11:44:15;99144.00;;;17.43;49.95
38780;BME280;29273;49.962;9.768;2023-03-23T11:46:46;99148.06;;;17.51;50.39
38780;BME280;29273;49.962;9.768;2023-03-23T11:49:20;99137.59;;;17.49;50.21
38780;BME280;29273;49.962;9.768;2023-03-23T11:51:54;99148.31;;;17.54;51.12
38780;BME280;29273;49.962;9.768;2023-03-23T11:54:28;99150.19;;;17.54;51.24
38780;BME280;29273;49.962;9.768;2023-03-23T11:56:54;99151.78;;;17.50;51.22
38780;BME280;29273;49.962;9.768;2023-03-23T11:59:32;99156.88;;;17.56;51.32
38780;BME280;29273;49.962;9.768;2023-03-23T12:05:09;99149.13;;;17.55;51.47
38780;BME280;29273;49.962;9.768;2023-03-23T12:10:22;99148.84;;;17.51;51.29
38780;BME280;29273;49.962;9.768;2023-03-23T12:13:01;99147.78;;;17.47;51.63
38780;BME280;29273;49.962;9.768;2023-03-23T12:18:45;99141.84;;;17.40;51.77
38780;BME280;29273;49.962;9.768;2023-03-23T12:27:08;99126.34;;;17.37;51.85
38780;BME280;29273;49.962;9.768;2023-03-23T12:32:30;99126.34;;;17.37;51.71
38780;BME280;29273;49.962;9.768;2023-03-23T12:35:33;99122.84;;;17.36;51.82
38780;BME280;29273;49.962;9.768;2023-03-23T12:38:13;99127.94;;;17.38;51.78
38780;BME280;29273;49.962;9.768;2023-03-23T12:41:05;99112.66;;;17.33;51.67
38780;BME280;29273;49.962;9.768;2023-03-23T12:43:41;99109.72;;;17.35;51.46
38780;BME280;29273;49.962;9.768;2023-03-23T12:49:05;99105.69;;;17.27;51.29
38780;BME280;29273;49.962;9.768;2023-03-23T12:54:33;99095.00;;;17.27;51.26
38780;BME280;29273;49.962;9.768;2023-03-23T12:57:09;99087.47;;;17.19;51.29
38780;BME280;29273;49.962;9.768;2023-03-23T13:02:43;99079.44;;;17.19;51.63
38780;BME280;29273;49.962;9.768;2023-03-23T13:05:35;99083.69;;;17.15;51.96
38780;BME280;29273;49.962;9.768;2023-03-23T13:08:11;99073.00;;;17.20;52.15
38780;BME280;29273;49.962;9.768;2023-03-23T13:11:01;99069.25;;;17.16;51.92
38780;BME280;29273;49.962;9.768;2023-03-23T13:13:45;99075.94;;;17.18;52.00
38780;BME280;29273;49.962;9.768;2023-03-23T13:21:32;99057.22;;;17.18;52.42
38780;BME280;29273;49.962;9.768;2023-03-23T13:24:10;99052.69;;;17.19;52.30
38780;BME280;29273;49.962;9.768;2023-03-23T13:26:40;99041.72;;;17.20;52.76
38780;BME280;29273;49.962;9.768;2023-03-23T13:29:16;99024.84;;;17.25;52.67
38780;BME280;29273;49.962;9.768;2023-03-23T13:31:44;99024.06;;;17.25;53.28
38780;BME280;29273;49.962;9.768;2023-03-23T13:34:31;99033.97;;;17.34;52.94
38780;BME280;29273;49.962;9.768;2023-03-23T13:36:57;99036.41;;;17.36;52.77
38780;BME280;29273;49.962;9.768;2023-03-23T13:39:26;99033.47;;;17.48;52.83
38780;BME280;29273;49.962;9.768;2023-03-23T13:42:20;99033.47;;;17.53;52.80
38780;BME280;29273;49.962;9.768;2023-03-23T13:52:51;99044.75;;;17.75;51.63
38780;BME280;29273;49.962;9.768;2023-03-23T14:05:49;99018.75;;;17.81;50.10
38780;BME280;29273;49.962;9.768;2023-03-23T14:10:55;99007.50;;;17.79;49.08
38780;BME280;29273;49.962;9.768;2023-03-23T14:14:01;99013.94;;;17.83;49.77
38780;BME280;29273;49.962;9.768;2023-03-23T14:19:03;99026.53;;;17.83;48.83
38780;BME280;29273;49.962;9.768;2023-03-23T14:21:38;99033.78;;;17.87;49.58
38780;BME280;29273;49.962;9.768;2023-03-23T14:24:27;99033.22;;;17.85;49.72
38780;BME280;29273;49.962;9.768;2023-03-23T14:29:32;99038.84;;;17.79;48.50
38780;BME280;29273;49.962;9.768;2023-03-23T14:31:58;99046.59;;;17.75;48.56
38780;BME280;29273;49.962;9.768;2023-03-23T14:34:27;99046.06;;;17.78;48.58
38780;BME280;29273;49.962;9.768;2023-03-23T14:36:55;99054.09;;;17.73;48.59
38780;BME280;29273;49.962;9.768;2023-03-23T14:39:31;99042.31;;;17.79;48.99
38780;BME280;29273;49.962;9.768;2023-03-23T14:42:04;99050.09;;;17.75;48.67
38780;BME280;29273;49.962;9.768;2023-03-23T14:44:33;99060.00;;;17.70;48.69
38780;BME280;29273;49.962;9.768;2023-03-23T14:47:05;99055.72;;;17.69;48.92
38780;BME280;29273;49.962;9.768;2023-03-23T14:49:40;99053.31;;;17.67;49.20
38780;BME280;29273;49.962;9.768;2023-03-23T14:52:12;99040.19;;;17.66;49.44
38780;BME280;29273;49.962;9.768;2023-03-23T14:54:39;99050.63;;;17.57;49.26
38780;BME280;29273;49.962;9.768;2023-03-23T14:57:15;99043.66;;;17.61;48.80
38780;BME280;29273;49.962;9.768;2023-03-23T14:59:42;99038.81;;;17.53;48.78
38780;BME280;29273;49.962;9.768;2023-03-23T15:02:17;99046.84;;;17.58;49.57
38780;BME280;29273;49.962;9.768;2023-03-23T15:04:48;99042.03;;;17.50;49.14
38780;BME280;29273;49.962;9.768;2023-03-23T15:07:16;99046.06;;;17.47;49.52